< < Back
Terminal Aerodrome Forecast


Current Version              Previous Versions:   1  2  3  4  5  6  7  8  9  

Terminal Aerodrome Forecast

834
FTUS44 KBMX 211700
TAFMGM
TAF
KMGM 211727Z 2118/2218 28005KT P6SM SCT045=

Latest METAR

475
SAUS80 KWBC 220600
MTRMGM
METAR KMGM 220553Z AUTO 00000KT 10SM CLR 27/24 A3007 RMK AO2 SLP178
T02670244 10339 20261 403610233 58014


USA.gov is the U.S. government's official web portal to all federal, state and local government web resources and services.